Time;durP1;ratioP1;P1;durP2;ratioP2;P2;SDS_P1;SDS_P2;PMS_P1;PMS_P2;Temp;Humidity;BMP_temperature;BMP_pressure;BME280_temperature;BME280_humidity;BME280_pressure;Samples;Min_cycle;Max_cycle;Signal;HPM_P1;HPM_P2
2022/03/04 00:01:22;;;;;;;;;59.50;40.00;;;;;;;;2;261079657;261079657;-80
2022/03/04 00:10:22;;;;;;;;;43.00;38.00;;;;;;;;2;261076660;261076660;-80
2022/03/04 00:21:57;;;;;;;;;52.00;43.00;;;;;;;;2;261076779;261076779;-80
2022/03/04 00:30:57;;;;;;;;;43.00;36.50;;;;;;;;2;261078935;261078935;-80
2022/03/04 00:39:13;;;;;;;;;50.50;36.00;;;;;;;;2;261073515;261073515;-81
2022/03/04 00:48:14;;;;;;;;;53.00;40.00;;;;;;;;2;261076880;261076880;-79
2022/03/04 00:56:29;;;;;;;;;49.00;37.50;;;;;;;;2;261078599;261078599;-80
2022/03/04 01:05:29;;;;;;;;;43.50;36.00;;;;;;;;2;261075809;261075809;-80
2022/03/04 01:13:45;;;;;;;;;55.00;43.50;;;;;;;;2;261076175;261076175;-80
2022/03/04 01:22:45;;;;;;;;;53.50;38.00;;;;;;;;2;261074953;261074953;-80
2022/03/04 01:31:01;;;;;;;;;49.50;42.50;;;;;;;;2;261077821;261077821;-80
2022/03/04 01:40:03;;;;;;;;;55.50;47.00;;;;;;;;2;261074059;261074059;-80
2022/03/04 01:48:21;;;;;;;;;53.00;40.50;;;;;;;;2;261074435;261074435;-80
2022/03/04 01:57:22;;;;;;;;;60.50;44.50;;;;;;;;2;261077375;261077375;-80
2022/03/04 02:05:37;;;;;;;;;62.50;44.50;;;;;;;;2;261077273;261077273;-80
2022/03/04 02:14:37;;;;;;;;;69.50;53.00;;;;;;;;2;261076068;261076068;-79
2022/03/04 02:22:53;;;;;;;;;61.00;39.50;;;;;;;;2;261076731;261076731;-79
2022/03/04 02:31:53;;;;;;;;;51.00;43.50;;;;;;;;2;261076014;261076014;-79
2022/03/04 02:40:09;;;;;;;;;57.50;46.50;;;;;;;;2;261076882;261076882;-79
2022/03/04 02:49:10;;;;;;;;;72.50;47.50;;;;;;;;2;261078541;261078541;-80
2022/03/04 02:57:25;;;;;;;;;53.50;44.00;;;;;;;;2;261077570;261077570;-81
2022/03/04 03:06:26;;;;;;;;;50.50;38.50;;;;;;;;2;261075008;261075008;-81
2022/03/04 03:14:41;;;;;;;;;36.50;34.00;;;;;;;;2;261076362;261076362;-79
2022/03/04 03:23:42;;;;;;;;;36.00;33.50;;;;;;;;2;261077392;261077392;-80
2022/03/04 03:31:57;;;;;;;;;49.00;33.50;;;;;;;;2;261077224;261077224;-80
2022/03/04 03:40:57;;;;;;;;;38.00;32.50;;;;;;;;2;261078985;261078985;-81
2022/03/04 03:49:13;;;;;;;;;45.00;38.00;;;;;;;;2;261075456;261075456;-81
2022/03/04 03:58:13;;;;;;;;;51.00;42.50;;;;;;;;2;261077641;261077641;-79
2022/03/04 04:06:29;;;;;;;;;64.50;43.50;;;;;;;;2;261074298;261074298;-79
2022/03/04 04:15:29;;;;;;;;;42.50;29.00;;;;;;;;2;261074358;261074358;-80
2022/03/04 04:23:44;;;;;;;;;39.50;29.50;;;;;;;;2;261075823;261075823;-78
2022/03/04 04:32:45;;;;;;;;;31.50;29.50;;;;;;;;2;261079371;261079371;-79
2022/03/04 04:41:00;;;;;;;;;50.50;34.00;;;;;;;;2;261077696;261077696;-80
2022/03/04 04:50:01;;;;;;;;;31.50;26.50;;;;;;;;2;261077474;261077474;-79
2022/03/04 04:58:16;;;;;;;;;47.50;32.50;;;;;;;;2;261077763;261077763;-79
2022/03/04 05:07:17;;;;;;;;;48.00;37.50;;;;;;;;2;261076523;261076523;-79
2022/03/04 05:15:32;;;;;;;;;39.00;33.00;;;;;;;;2;261076721;261076721;-79
2022/03/04 05:24:33;;;;;;;;;42.00;37.00;;;;;;;;2;261076203;261076203;-79
2022/03/04 05:32:48;;;;;;;;;70.00;44.00;;;;;;;;2;261077571;261077571;-79
2022/03/04 05:41:49;;;;;;;;;52.00;40.00;;;;;;;;2;261074414;261074414;-79
2022/03/04 05:50:04;;;;;;;;;41.00;37.00;;;;;;;;2;261076816;261076816;-79
2022/03/04 05:59:05;;;;;;;;;44.50;39.00;;;;;;;;2;261077076;261077076;-79
2022/03/04 06:07:20;;;;;;;;;53.00;39.50;;;;;;;;2;261075535;261075535;-79
2022/03/04 06:16:20;;;;;;;;;45.50;39.50;;;;;;;;2;261076232;261076232;-79
2022/03/04 06:24:36;;;;;;;;;56.50;38.00;;;;;;;;2;261074091;261074091;-79
2022/03/04 06:33:38;;;;;;;;;31.50;26.00;;;;;;;;2;261072812;261072812;-79
2022/03/04 06:41:54;;;;;;;;;46.50;39.50;;;;;;;;2;261076908;261076908;-78
2022/03/04 06:50:55;;;;;;;;;54.00;39.50;;;;;;;;2;261077001;261077001;-79
2022/03/04 06:59:10;;;;;;;;;49.50;30.50;;;;;;;;2;261076859;261076859;-79
2022/03/04 07:08:11;;;;;;;;;53.00;38.00;;;;;;;;2;261077371;261077371;-79
2022/03/04 07:16:27;;;;;;;;;29.00;28.50;;;;;;;;2;261077561;261077561;-80
2022/03/04 07:25:27;;;;;;;;;44.00;38.50;;;;;;;;2;261075698;261075698;-80
2022/03/04 07:33:43;;;;;;;;;41.00;36.00;;;;;;;;2;261077668;261077668;-79
2022/03/04 07:42:44;;;;;;;;;30.00;29.50;;;;;;;;2;261075683;261075683;-80
2022/03/04 07:50:59;;;;;;;;;52.00;38.50;;;;;;;;2;261075042;261075042;-80
2022/03/04 07:59:59;;;;;;;;;50.00;39.00;;;;;;;;2;261077643;261077643;-81
2022/03/04 08:08:15;;;;;;;;;46.50;34.50;;;;;;;;2;261078143;261078143;-81
2022/03/04 08:17:15;;;;;;;;;47.00;34.00;;;;;;;;2;261077061;261077061;-81
2022/03/04 08:25:30;;;;;;;;;53.00;36.50;;;;;;;;2;261077515;261077515;-83
2022/03/04 08:34:31;;;;;;;;;55.50;37.00;;;;;;;;2;261078075;261078075;-80
2022/03/04 08:42:47;;;;;;;;;51.50;42.50;;;;;;;;2;261077737;261077737;-81
2022/03/04 08:51:47;;;;;;;;;49.00;40.00;;;;;;;;2;261075502;261075502;-81
2022/03/04 09:00:03;;;;;;;;;47.00;40.50;;;;;;;;2;261076331;261076331;-80
2022/03/04 09:09:04;;;;;;;;;55.50;41.50;;;;;;;;2;261079972;261079972;-81
2022/03/04 09:17:20;;;;;;;;;62.00;48.00;;;;;;;;2;261081325;261081325;-81
2022/03/04 09:26:20;;;;;;;;;68.00;50.50;;;;;;;;2;261077040;261077040;-82
2022/03/04 09:34:36;;;;;;;;;54.00;38.50;;;;;;;;2;261076717;261076717;-81
2022/03/04 09:43:37;;;;;;;;;46.00;38.00;;;;;;;;2;261075425;261075425;-81
2022/03/04 09:51:53;;;;;;;;;47.50;39.50;;;;;;;;2;261073821;261073821;-81
2022/03/04 10:00:53;;;;;;;;;53.50;44.50;;;;;;;;2;261076619;261076619;-81
2022/03/04 10:09:09;;;;;;;;;72.50;46.00;;;;;;;;2;261075543;261075543;-81
2022/03/04 10:18:10;;;;;;;;;62.50;42.00;;;;;;;;2;261078050;261078050;-81
2022/03/04 10:26:29;;;;;;;;;59.50;44.00;;;;;;;;2;261082968;261082968;-82
2022/03/04 10:35:30;;;;;;;;;50.50;41.50;;;;;;;;2;261078432;261078432;-82
2022/03/04 10:43:45;;;;;;;;;59.50;43.00;;;;;;;;2;261079436;261079436;-82
2022/03/04 10:52:57;;;;;;;;;61.00;44.00;;;;;;;;2;261081681;261081681;-82
2022/03/04 11:01:21;;;;;;;;;69.50;50.50;;;;;;;;2;261078717;261078717;-82
2022/03/04 11:10:22;;;;;;;;;57.50;42.00;;;;;;;;2;261080257;261080257;-82
2022/03/04 11:18:37;;;;;;;;;62.50;46.50;;;;;;;;2;261081270;261081270;-82
2022/03/04 11:27:41;;;;;;;;;60.50;43.50;;;;;;;;2;261076875;261076875;-82
2022/03/04 11:36:11;;;;;;;;;67.00;44.00;;;;;;;;2;261075055;261075055;-82
2022/03/04 11:45:13;;;;;;;;;63.50;48.00;;;;;;;;2;261076650;261076650;-82
2022/03/04 11:53:28;;;;;;;;;64.00;50.50;;;;;;;;2;261077859;261077859;-82
2022/03/04 12:02:41;;;;;;;;;69.50;53.00;;;;;;;;2;261077703;261077703;-82
2022/03/04 12:10:59;;;;;;;;;63.00;49.50;;;;;;;;2;261074605;261074605;-82
2022/03/04 12:20:00;;;;;;;;;71.50;50.00;;;;;;;;2;261075921;261075921;-82
2022/03/04 12:28:16;;;;;;;;;60.50;48.50;;;;;;;;2;261078356;261078356;-81
2022/03/04 12:37:16;;;;;;;;;61.00;48.50;;;;;;;;2;261076268;261076268;-82
2022/03/04 12:45:31;;;;;;;;;71.00;48.50;;;;;;;;2;261077096;261077096;-81
2022/03/04 12:54:32;;;;;;;;;50.00;38.50;;;;;;;;2;261074812;261074812;-81
2022/03/04 13:02:47;;;;;;;;;62.50;48.00;;;;;;;;2;261076529;261076529;-81
2022/03/04 13:11:48;;;;;;;;;53.00;45.00;;;;;;;;2;261076204;261076204;-81
2022/03/04 13:20:06;;;;;;;;;59.50;45.00;;;;;;;;2;261077172;261077172;-80
2022/03/04 13:29:07;;;;;;;;;61.50;41.00;;;;;;;;2;261078094;261078094;-80
2022/03/04 13:37:36;;;;;;;;;50.50;43.00;;;;;;;;2;261073790;261073790;-80
2022/03/04 13:46:55;;;;;;;;;67.00;45.50;;;;;;;;2;261075675;261075675;-80
2022/03/04 13:55:11;;;;;;;;;69.00;48.50;;;;;;;;2;261075849;261075849;-80
2022/03/04 14:04:11;;;;;;;;;55.50;45.50;;;;;;;;2;261077306;261077306;-80
2022/03/04 14:12:27;;;;;;;;;59.50;41.00;;;;;;;;2;261077593;261077593;-80
2022/03/04 14:21:27;;;;;;;;;57.50;43.00;;;;;;;;2;261075935;261075935;-80
2022/03/04 14:29:43;;;;;;;;;63.50;42.00;;;;;;;;2;261077241;261077241;-80
2022/03/04 14:38:43;;;;;;;;;44.00;37.00;;;;;;;;2;261077287;261077287;-80
2022/03/04 14:46:59;;;;;;;;;57.00;42.50;;;;;;;;2;261079206;261079206;-80
2022/03/04 14:55:59;;;;;;;;;62.00;33.50;;;;;;;;2;261076640;261076640;-82
2022/03/04 15:04:15;;;;;;;;;43.50;33.50;;;;;;;;2;261080223;261080223;-81
2022/03/04 15:13:15;;;;;;;;;28.50;28.00;;;;;;;;2;261081557;261081557;-80
2022/03/04 15:21:31;;;;;;;;;50.00;41.00;;;;;;;;2;261079532;261079532;-80
2022/03/04 15:30:32;;;;;;;;;54.50;36.50;;;;;;;;2;261075664;261075664;-80
2022/03/04 15:38:47;;;;;;;;;58.00;36.00;;;;;;;;2;261079100;261079100;-80
2022/03/04 15:47:49;;;;;;;;;22.50;22.50;;;;;;;;2;261079343;261079343;-80
2022/03/04 15:56:04;;;;;;;;;44.50;29.50;;;;;;;;2;261076778;261076778;-81
2022/03/04 16:05:05;;;;;;;;;29.00;27.50;;;;;;;;2;261077756;261077756;-81
2022/03/04 16:13:20;;;;;;;;;46.00;20.00;;;;;;;;2;261077966;261077966;-81
2022/03/04 16:22:21;;;;;;;;;27.50;23.50;;;;;;;;2;261076997;261076997;-81
2022/03/04 16:30:36;;;;;;;;;22.00;19.50;;;;;;;;2;261077662;261077662;-80
2022/03/04 16:39:37;;;;;;;;;44.00;26.00;;;;;;;;2;261077382;261077382;-81
2022/03/04 16:47:52;;;;;;;;;46.50;27.00;;;;;;;;2;261077852;261077852;-80
2022/03/04 16:56:53;;;;;;;;;45.50;23.50;;;;;;;;2;261087278;261087278;-81
2022/03/04 17:05:13;;;;;;;;;48.00;29.00;;;;;;;;2;261078896;261078896;-81
2022/03/04 17:14:13;;;;;;;;;45.50;28.00;;;;;;;;2;261080458;261080458;-79
2022/03/04 17:22:29;;;;;;;;;33.50;30.50;;;;;;;;2;261078633;261078633;-80
2022/03/04 17:31:29;;;;;;;;;39.00;35.00;;;;;;;;2;261080001;261080001;-79
2022/03/04 17:39:45;;;;;;;;;55.50;33.00;;;;;;;;2;261081504;261081504;-80
2022/03/04 17:48:48;;;;;;;;;43.00;34.00;;;;;;;;2;261088274;261088274;-80
2022/03/04 17:57:06;;;;;;;;;54.00;26.00;;;;;;;;2;261081807;261081807;-79
2022/03/04 18:06:07;;;;;;;;;31.50;27.00;;;;;;;;2;261079894;261079894;-79
2022/03/04 18:14:22;;;;;;;;;34.00;25.50;;;;;;;;2;261075011;261075011;-79
2022/03/04 18:23:23;;;;;;;;;40.00;32.00;;;;;;;;2;261079717;261079717;-79
2022/03/04 18:31:40;;;;;;;;;32.50;28.50;;;;;;;;2;261073890;261073890;-79
2022/03/04 18:40:40;;;;;;;;;20.00;20.00;;;;;;;;2;261077743;261077743;-79
2022/03/04 18:48:56;;;;;;;;;26.50;22.50;;;;;;;;2;261076534;261076534;-79
2022/03/04 18:57:56;;;;;;;;;33.00;31.50;;;;;;;;2;261075904;261075904;-81
2022/03/04 19:06:11;;;;;;;;;38.00;26.00;;;;;;;;2;261074648;261074648;-81
2022/03/04 19:15:14;;;;;;;;;25.50;14.50;;;;;;;;2;261076678;261076678;-80
2022/03/04 19:23:29;;;;;;;;;29.00;25.00;;;;;;;;2;261077985;261077985;-80
2022/03/04 19:32:33;;;;;;;;;39.00;14.00;;;;;;;;2;261073939;261073939;-80
2022/03/04 19:40:49;;;;;;;;;28.00;11.50;;;;;;;;2;261079362;261079362;-79
2022/03/04 19:49:49;;;;;;;;;38.50;19.00;;;;;;;;2;261077432;261077432;-80
2022/03/04 19:58:05;;;;;;;;;21.50;21.50;;;;;;;;2;261080370;261080370;-79
2022/03/04 20:07:05;;;;;;;;;19.50;19.50;;;;;;;;2;261077006;261077006;-80
2022/03/04 20:15:20;;;;;;;;;16.50;16.50;;;;;;;;2;261078832;261078832;-80
2022/03/04 20:24:21;;;;;;;;;22.00;18.50;;;;;;;;2;261077227;261077227;-81
2022/03/04 20:32:36;;;;;;;;;43.50;29.00;;;;;;;;2;261074389;261074389;-81
2022/03/04 20:41:37;;;;;;;;;27.00;23.00;;;;;;;;2;261076322;261076322;-81
2022/03/04 20:49:52;;;;;;;;;23.50;20.00;;;;;;;;2;261075734;261075734;-81
2022/03/04 20:58:53;;;;;;;;;35.50;23.50;;;;;;;;2;261079479;261079479;-81
2022/03/04 21:07:08;;;;;;;;;22.00;20.50;;;;;;;;2;261079048;261079048;-80
2022/03/04 21:16:09;;;;;;;;;27.50;26.50;;;;;;;;2;261077580;261077580;-80
2022/03/04 21:24:24;;;;;;;;;27.50;27.00;;;;;;;;2;261076912;261076912;-79
2022/03/04 21:33:24;;;;;;;;;31.00;28.50;;;;;;;;2;261075636;261075636;-80
2022/03/04 21:41:40;;;;;;;;;61.50;27.50;;;;;;;;2;261083030;261083030;-80
2022/03/04 21:50:43;;;;;;;;;51.50;35.00;;;;;;;;2;261075633;261075633;-80
2022/03/04 21:58:58;;;;;;;;;33.50;31.50;;;;;;;;2;261075797;261075797;-79
2022/03/04 22:07:59;;;;;;;;;31.50;27.00;;;;;;;;2;261075666;261075666;-81
2022/03/04 22:16:14;;;;;;;;;26.50;26.00;;;;;;;;2;261078737;261078737;-81
2022/03/04 22:25:15;;;;;;;;;62.00;39.50;;;;;;;;2;261077120;261077120;-81
2022/03/04 22:33:31;;;;;;;;;42.50;31.50;;;;;;;;2;261077437;261077437;-81
2022/03/04 22:42:31;;;;;;;;;35.00;30.50;;;;;;;;2;261085247;261085247;-80
2022/03/04 22:50:47;;;;;;;;;31.50;26.00;;;;;;;;2;261079102;261079102;-80
2022/03/04 22:59:47;;;;;;;;;36.50;34.00;;;;;;;;2;261082068;261082068;-80
2022/03/04 23:08:09;;;;;;;;;48.00;32.50;;;;;;;;2;261083929;261083929;-82
2022/03/04 23:17:09;;;;;;;;;47.50;34.00;;;;;;;;2;261074933;261074933;-80
2022/03/04 23:25:25;;;;;;;;;71.00;35.50;;;;;;;;2;261080251;261080251;-81
2022/03/04 23:34:27;;;;;;;;;56.50;42.00;;;;;;;;2;261077978;261077978;-82
2022/03/04 23:42:42;;;;;;;;;50.00;34.00;;;;;;;;2;261078350;261078350;-81
2022/03/04 23:51:43;;;;;;;;;42.50;30.00;;;;;;;;2;261076560;261076560;-81
2022/03/04 23:59:58;;;;;;;;;43.00;28.00;;;;;;;;2;260943032;260943032;-81
